Time;durP1;ratioP1;P1;durP2;ratioP2;P2;SDS_P1;SDS_P2;PMS_P1;PMS_P2;Temp;Humidity;BMP_temperature;BMP_pressure;BME280_temperature;BME280_humidity;BME280_pressure;Samples;Min_cycle;Max_cycle;Signal;HPM_P1;HPM_P2
2022/03/27 00:01:14;;;;;;;41.50;19.13;;;;;;;4.12;86.73;98346.72;5117341;27;20115;-85
2022/03/27 00:03:40;;;;;;;33.75;16.83;;;;;;;4.21;89.23;98345.66;5125575;27;20500;-85
2022/03/27 00:06:05;;;;;;;39.47;16.65;;;;;;;4.13;92.45;98334.34;5117236;27;20031;-86
2022/03/27 00:08:31;;;;;;;37.88;17.42;;;;;;;4.18;92.49;98349.22;5132532;27;20022;-85
2022/03/27 00:13:41;;;;;;;40.47;19.23;;;;;;;3.89;92.69;98334.91;5138934;27;20061;-84
2022/03/27 00:16:09;;;;;;;37.85;16.67;;;;;;;3.80;92.06;98322.78;5120213;27;20466;-84
2022/03/27 00:18:36;;;;;;;33.95;16.48;;;;;;;3.97;90.82;98331.19;5154969;27;20101;-84
2022/03/27 00:21:01;;;;;;;38.90;16.77;;;;;;;3.91;90.77;98322.56;5138049;27;20026;-84
2022/03/27 00:23:28;;;;;;;34.80;17.67;;;;;;;4.03;90.46;98327.56;5137211;27;20027;-85
2022/03/27 00:25:54;;;;;;;34.35;17.45;;;;;;;4.01;90.27;98324.94;5126475;27;20073;-84
2022/03/27 00:28:20;;;;;;;49.55;18.42;;;;;;;3.96;90.39;98307.41;5144268;27;20398;-84
2022/03/27 00:30:45;;;;;;;42.65;19.40;;;;;;;3.97;90.56;98314.47;5133199;27;20046;-84
2022/03/27 00:33:11;;;;;;;52.10;20.67;;;;;;;4.01;90.66;98324.94;5136224;27;20034;-84
2022/03/27 00:35:37;;;;;;;46.90;20.23;;;;;;;3.91;89.97;98302.22;5116785;27;20019;-85
2022/03/27 00:38:02;;;;;;;53.60;26.00;;;;;;;3.91;89.86;98301.38;5116586;27;20489;-85
2022/03/27 00:40:28;;;;;;;57.13;25.70;;;;;;;3.80;89.63;98278.69;5127596;27;20027;-85
2022/03/27 00:42:54;;;;;;;52.92;25.75;;;;;;;3.91;88.73;98307.50;5145713;27;20033;-85
2022/03/27 00:45:19;;;;;;;54.28;25.40;;;;;;;3.81;89.68;98306.84;5118481;27;20030;-85
2022/03/27 00:47:45;;;;;;;47.80;24.42;;;;;;;3.82;90.70;98302.44;5120997;27;20097;-85
2022/03/27 00:50:10;;;;;;;46.67;23.08;;;;;;;3.82;90.38;98300.66;5120432;27;20103;-85
2022/03/27 00:52:36;;;;;;;45.67;23.55;;;;;;;3.73;91.09;98287.66;5124752;27;20030;-85
2022/03/27 00:55:02;;;;;;;50.25;23.40;;;;;;;3.68;91.81;98294.84;5120148;27;20174;-85
2022/03/27 00:57:30;;;;;;;56.25;24.75;;;;;;;3.62;90.59;98283.53;5126467;27;20126;-85
2022/03/27 00:59:56;;;;;;;53.65;24.20;;;;;;;3.59;89.40;98300.34;5136844;27;20022;-85
2022/03/27 01:02:21;;;;;;;59.33;22.80;;;;;;;3.50;91.02;98292.59;5130884;27;20021;-85
2022/03/27 01:04:47;;;;;;;61.08;25.60;;;;;;;3.60;90.12;98301.22;5125800;27;20027;-85
2022/03/27 01:07:19;;;;;;;53.60;24.90;;;;;;;3.62;90.40;98315.25;5129850;27;20052;-85
2022/03/27 01:09:45;;;;;;;52.22;23.73;;;;;;;3.53;90.17;98303.13;5119352;27;20023;-85
2022/03/27 01:12:23;;;;;;;48.63;22.17;;;;;;;3.60;91.04;98312.63;5123324;27;20031;-85
2022/03/27 01:14:49;;;;;;;69.07;26.33;;;;;;;3.62;90.30;98305.56;5134604;27;20033;-85
2022/03/27 01:17:20;;;;;;;67.18;30.55;;;;;;;3.63;89.49;98317.00;5122539;27;20023;-85
2022/03/27 01:19:51;;;;;;;44.45;21.13;;;;;;;3.61;90.10;98316.16;5116795;27;20478;-86
2022/03/27 01:22:18;;;;;;;48.40;23.60;;;;;;;3.39;90.86;98302.53;5139705;27;20023;-85
2022/03/27 01:24:45;;;;;;;69.20;26.20;;;;;;;3.47;91.30;98305.91;5124107;27;20032;-85
2022/03/27 01:27:11;;;;;;;56.55;24.92;;;;;;;3.40;91.00;98301.63;5115596;27;20073;-85
2022/03/27 01:29:37;;;;;;;61.95;28.02;;;;;;;3.45;91.44;98301.50;5115513;27;20050;-85
2022/03/27 01:32:04;;;;;;;63.67;30.08;;;;;;;3.27;91.17;98292.22;5126913;27;20058;-85
2022/03/27 01:34:30;;;;;;;67.05;29.13;;;;;;;3.36;91.18;98301.72;5120939;27;20023;-85
2022/03/27 01:36:56;;;;;;;70.80;31.80;;;;;;;3.35;90.79;98289.41;5117704;27;20027;-85
2022/03/27 01:39:21;;;;;;;76.25;32.63;;;;;;;3.33;89.99;98291.19;5122562;27;20015;-85
2022/03/27 01:41:47;;;;;;;68.97;29.80;;;;;;;3.31;91.73;98299.19;5133244;27;20030;-85
2022/03/27 01:44:15;;;;;;;77.13;30.33;;;;;;;3.21;92.15;98281.78;5131860;27;20022;-85
2022/03/27 01:46:42;;;;;;;76.35;33.05;;;;;;;3.21;91.49;98282.66;5131344;27;20033;-85
2022/03/27 01:49:09;;;;;;;75.03;30.88;;;;;;;3.17;91.04;98282.72;5132152;27;20023;-85
2022/03/27 01:51:36;;;;;;;74.80;31.50;;;;;;;3.26;90.18;98298.44;5122258;27;20019;-85
2022/03/27 01:54:02;;;;;;;74.70;30.27;;;;;;;3.23;90.18;98290.56;5135488;27;20481;-85
2022/03/27 01:56:28;;;;;;;61.53;27.63;;;;;;;3.08;91.33;98285.56;5121237;27;20076;-85
2022/03/27 01:58:54;;;;;;;54.90;26.60;;;;;;;3.02;92.20;98280.41;5131901;27;20142;-85
2022/03/27 02:01:20;;;;;;;61.40;25.52;;;;;;;3.02;92.29;98283.03;5132224;27;20054;-85
2022/03/27 02:03:46;;;;;;;59.60;25.63;;;;;;;2.88;92.84;98285.09;5125949;27;20031;-86
2022/03/27 02:06:12;;;;;;;46.83;22.38;;;;;;;2.79;93.16;98290.56;5144221;27;20053;-85
2022/03/27 02:08:38;;;;;;;46.13;21.67;;;;;;;2.68;93.52;98286.34;5126697;27;20477;-85
2022/03/27 02:11:05;;;;;;;53.53;23.10;;;;;;;2.66;94.06;98282.88;5127387;27;20067;-85
2022/03/27 02:13:31;;;;;;;53.97;22.20;;;;;;;2.65;93.36;98265.28;5129134;27;20034;-85
2022/03/27 02:15:58;;;;;;;42.10;19.95;;;;;;;2.61;93.01;98263.63;5123221;27;20481;-86
2022/03/27 02:18:27;;;;;;;45.42;21.83;;;;;;;2.65;94.02;98283.78;5125654;27;20155;-85
2022/03/27 02:20:54;;;;;;;49.47;23.70;;;;;;;2.64;95.02;98273.25;5131322;27;20027;-85
2022/03/27 02:23:23;;;;;;;53.97;24.27;;;;;;;2.58;94.71;98274.25;5126978;27;20478;-85
2022/03/27 02:25:49;;;;;;;51.88;21.33;;;;;;;2.63;94.12;98280.31;5126965;27;20478;-86
2022/03/27 02:28:15;;;;;;;54.33;20.75;;;;;;;2.61;95.12;98286.50;5120066;27;20113;-85
2022/03/27 02:30:41;;;;;;;46.13;21.92;;;;;;;2.63;94.49;98293.50;5114592;27;20472;-85
2022/03/27 02:33:07;;;;;;;41.03;18.73;;;;;;;2.65;93.33;98280.25;5127606;27;20034;-85
2022/03/27 02:35:32;;;;;;;48.70;20.30;;;;;;;2.55;93.50;98284.00;5135019;27;20462;-85
2022/03/27 02:37:58;;;;;;;42.25;19.33;;;;;;;2.55;94.00;98274.28;5115496;27;20023;-85
2022/03/27 02:40:24;;;;;;;39.80;19.25;;;;;;;2.57;93.71;98288.34;5126873;27;20485;-85
2022/03/27 02:42:49;;;;;;;41.58;19.48;;;;;;;2.39;94.42;98272.84;5127508;27;20023;-85
2022/03/27 02:45:15;;;;;;;47.15;20.52;;;;;;;2.37;94.91;98281.69;5128708;27;20027;-85
2022/03/27 02:47:41;;;;;;;42.22;19.35;;;;;;;2.35;96.24;98289.63;5120132;27;20037;-85
2022/03/27 02:50:07;;;;;;;40.15;17.80;;;;;;;2.42;95.09;98298.31;5129414;27;20023;-85
2022/03/27 02:52:33;;;;;;;37.65;17.58;;;;;;;2.30;94.56;98280.91;5123426;27;20027;-85
2022/03/27 02:54:59;;;;;;;36.10;16.90;;;;;;;2.30;95.13;98283.56;5132083;27;20680;-85
2022/03/27 02:57:25;;;;;;;43.95;20.05;;;;;;;2.39;95.76;98303.63;5122053;28;20138;-85
2022/03/27 02:59:52;;;;;;;38.25;17.00;;;;;;;2.39;95.73;98301.00;5122780;27;20051;-85
2022/03/27 03:02:19;;;;;;;38.00;17.50;;;;;;;2.35;96.01;98302.81;5122553;27;20481;-85
2022/03/27 03:04:45;;;;;;;39.63;17.08;;;;;;;2.38;95.36;98308.03;5131621;27;20043;-84
2022/03/27 03:07:11;;;;;;;35.42;16.10;;;;;;;2.26;95.08;98308.25;5150449;27;20019;-85
2022/03/27 03:09:36;;;;;;;32.35;16.25;;;;;;;2.23;95.82;98308.31;5130295;27;20394;-85
2022/03/27 03:12:02;;;;;;;34.92;16.98;;;;;;;2.20;95.87;98289.88;5114633;27;20037;-85
2022/03/27 03:14:28;;;;;;;37.42;16.83;;;;;;;2.28;95.20;98300.31;5132393;27;20463;-85
2022/03/27 03:16:53;;;;;;;34.97;17.02;;;;;;;2.30;95.12;98294.13;5122392;27;20096;-85
2022/03/27 03:19:19;;;;;;;40.38;16.70;;;;;;;2.28;95.66;98302.97;5131262;27;20327;-85
2022/03/27 03:21:45;;;;;;;35.67;17.75;;;;;;;2.24;96.21;98299.50;5122861;27;20027;-85
2022/03/27 03:24:11;;;;;;;37.85;17.42;;;;;;;2.16;95.83;98302.25;5146223;27;20454;-84
2022/03/27 03:26:36;;;;;;;34.78;16.48;;;;;;;2.21;95.05;98299.56;5134514;27;20064;-85
2022/03/27 03:29:02;;;;;;;44.00;16.55;;;;;;;2.19;94.72;98302.19;5126906;27;20055;-85
2022/03/27 03:31:28;;;;;;;33.30;16.90;;;;;;;2.17;95.11;98308.41;5116810;27;20375;-85
2022/03/27 03:33:54;;;;;;;36.40;16.98;;;;;;;2.16;95.35;98317.19;5133346;27;20493;-84
2022/03/27 03:36:20;;;;;;;43.97;17.38;;;;;;;2.17;95.86;98308.41;5134103;27;20029;-84
2022/03/27 03:38:45;;;;;;;36.60;16.48;;;;;;;2.21;95.92;98310.09;5127003;27;20106;-84
2022/03/27 03:41:11;;;;;;;53.25;20.35;;;;;;;2.20;95.37;98313.63;5141452;27;20026;-85
2022/03/27 03:43:37;;;;;;;38.45;17.52;;;;;;;2.10;95.80;98304.13;5127051;27;20114;-85
2022/03/27 03:46:06;;;;;;;34.55;17.05;;;;;;;2.05;96.34;98308.59;5129657;27;20037;-85
2022/03/27 03:48:32;;;;;;;34.85;16.05;;;;;;;2.04;96.30;98313.00;5135401;27;20035;-85
2022/03/27 03:50:58;;;;;;;39.05;15.80;;;;;;;1.93;97.03;98304.41;5126243;27;20605;-85
2022/03/27 03:53:24;;;;;;;36.80;16.77;;;;;;;1.89;97.85;98317.66;5119866;27;20022;-76
2022/03/27 03:55:50;;;;;;;35.63;15.98;;;;;;;1.93;98.03;98324.63;5140334;27;20432;-85
2022/03/27 03:58:15;;;;;;;42.80;16.48;;;;;;;1.80;98.48;98310.75;5137224;27;20046;-86
2022/03/27 04:00:42;;;;;;;34.22;15.88;;;;;;;1.89;98.88;98315.88;5137975;27;20182;-86
2022/03/27 04:03:09;;;;;;;37.40;16.15;;;;;;;1.85;98.76;98321.22;5121395;27;20496;-85
2022/03/27 04:05:35;;;;;;;40.42;17.42;;;;;;;1.74;99.78;98317.88;5125232;27;20030;-85
2022/03/27 04:08:00;;;;;;;35.05;17.20;;;;;;;1.72;99.59;98304.72;5116780;27;20117;-86
2022/03/27 04:10:27;;;;;;;53.65;17.52;;;;;;;1.73;99.26;98310.84;5119922;27;20039;-86
2022/03/27 04:12:52;;;;;;;41.70;16.90;;;;;;;1.68;99.53;98318.84;5136160;27;20022;-86
2022/03/27 04:15:18;;;;;;;46.38;16.58;;;;;;;1.55;100.00;98304.09;5129858;27;20099;-86
2022/03/27 04:17:44;;;;;;;42.35;16.48;;;;;;;1.55;100.00;98315.50;5127771;27;20474;-85
2022/03/27 04:20:12;;;;;;;42.50;18.08;;;;;;;1.65;100.00;98324.16;5129098;27;20497;-85
2022/03/27 04:22:39;;;;;;;50.92;17.55;;;;;;;1.68;100.00;98315.34;5137171;27;20035;-85
2022/03/27 04:25:05;;;;;;;47.70;18.08;;;;;;;1.79;100.00;98332.72;5131367;27;20027;-85
2022/03/27 04:27:31;;;;;;;44.60;17.67;;;;;;;1.74;99.12;98305.56;5119440;27;20035;-86
2022/03/27 04:29:56;;;;;;;55.63;18.70;;;;;;;1.80;98.94;98323.06;5116360;27;20029;-84
2022/03/27 04:32:22;;;;;;;43.10;19.88;;;;;;;1.89;98.71;98354.56;5117050;27;20158;-85
2022/03/27 04:34:50;;;;;;;45.17;19.33;;;;;;;1.87;98.26;98335.28;5129878;27;20026;-84
2022/03/27 04:37:18;;;;;;;44.30;20.52;;;;;;;1.90;97.86;98330.81;5121849;27;20387;-85
2022/03/27 04:39:44;;;;;;;65.60;22.88;;;;;;;2.03;98.07;98350.81;5126399;27;20473;-84
2022/03/27 04:42:10;;;;;;;52.03;19.00;;;;;;;2.14;97.22;98354.19;5115730;27;20027;-87
2022/03/27 04:44:35;;;;;;;42.40;20.35;;;;;;;2.16;96.78;98335.69;5126775;27;20031;-87
2022/03/27 04:47:02;;;;;;;46.13;20.20;;;;;;;2.26;95.86;98350.47;5143247;27;20015;-88
2022/03/27 04:49:27;;;;;;;49.55;21.63;;;;;;;2.24;94.79;98351.41;5126885;27;20015;-88
2022/03/27 04:51:53;;;;;;;51.38;21.70;;;;;;;2.30;94.31;98338.97;5123636;27;20038;-87
2022/03/27 04:54:18;;;;;;;47.38;20.02;;;;;;;2.45;93.48;98353.69;5120440;27;20095;-88
2022/03/27 04:56:44;;;;;;;54.13;21.60;;;;;;;2.55;93.07;98358.75;5133593;27;20087;-86
2022/03/27 04:59:10;;;;;;;65.32;22.80;;;;;;;2.74;92.11;98344.34;5128234;27;20042;-86
2022/03/27 05:01:36;;;;;;;50.28;19.55;;;;;;;3.29;89.11;98359.16;5126933;27;20030;-86
2022/03/27 05:04:02;;;;;;;63.42;23.65;;;;;;;3.41;86.01;98347.47;5121291;27;20473;-86
2022/03/27 05:06:29;;;;;;;48.42;21.55;;;;;;;3.42;85.04;98358.00;5147263;27;20058;-86
2022/03/27 05:08:58;;;;;;;48.35;20.67;;;;;;;3.60;84.59;98354.94;5136992;27;20114;-86
2022/03/27 05:11:25;;;;;;;39.17;18.70;;;;;;;4.36;80.23;98348.78;5137704;27;20026;-86
2022/03/27 05:13:50;;;;;;;42.30;19.17;;;;;;;4.95;76.59;98353.47;5133490;27;20023;-86
2022/03/27 05:16:16;;;;;;;34.53;17.20;;;;;;;5.68;73.14;98355.78;5122329;27;20071;-87
2022/03/27 05:18:41;;;;;;;39.25;17.80;;;;;;;5.66;70.90;98346.97;5124676;27;20019;-86
2022/03/27 05:21:07;;;;;;;45.20;19.05;;;;;;;6.03;70.98;98357.38;5124780;27;20110;-87
2022/03/27 05:23:34;;;;;;;54.88;22.40;;;;;;;6.77;66.75;98347.00;5117133;27;20188;-87
2022/03/27 05:26:00;;;;;;;45.85;19.88;;;;;;;7.76;63.08;98354.94;5128796;27;20023;-87
2022/03/27 05:28:26;;;;;;;46.53;23.35;;;;;;;9.00;58.48;98344.56;5136741;27;20481;-87
2022/03/27 05:30:52;;;;;;;44.78;22.88;;;;;;;9.83;54.67;98318.56;5142047;27;20084;-87
2022/03/27 05:33:18;;;;;;;48.75;24.27;;;;;;;10.47;52.15;98334.25;5131409;27;20019;-88
2022/03/27 05:35:44;;;;;;;55.70;24.17;;;;;;;10.99;50.49;98328.00;5120087;27;20137;-87
2022/03/27 05:38:10;;;;;;;49.22;21.58;;;;;;;10.97;50.11;98318.34;5117264;27;20019;-87
2022/03/27 05:40:36;;;;;;;54.30;21.38;;;;;;;11.66;48.59;98330.69;5132565;27;20019;-88
2022/03/27 05:43:01;;;;;;;46.38;21.65;;;;;;;12.05;47.60;98313.44;5125933;27;20625;-88
2022/03/27 05:45:27;;;;;;;64.10;25.33;;;;;;;13.02;45.39;98316.69;5116281;27;20061;-87
2022/03/27 05:47:53;;;;;;;53.70;28.50;;;;;;;13.71;43.89;98313.41;5124521;27;20426;-87
2022/03/27 05:50:22;;;;;;;61.38;30.42;;;;;;;14.01;42.93;98308.78;5151566;27;20019;-88
2022/03/27 05:52:49;;;;;;;67.28;32.45;;;;;;;14.64;41.72;98298.41;5125035;27;20397;-85
2022/03/27 05:55:15;;;;;;;64.35;30.60;;;;;;;14.83;41.14;98309.66;5125187;27;20031;-86
2022/03/27 05:57:42;;;;;;;74.93;29.98;;;;;;;15.27;40.33;98309.34;5124290;27;20047;-86
2022/03/27 06:00:09;;;;;;;71.50;34.90;;;;;;;14.84;41.02;98314.09;5124847;27;20035;-87
2022/03/27 06:02:35;;;;;;;75.93;39.90;;;;;;;15.35;39.94;98298.91;5118104;27;20535;-86
2022/03/27 06:05:01;;;;;;;85.40;39.90;;;;;;;15.55;39.40;98314.63;5142631;27;20054;-87
2022/03/27 06:07:26;;;;;;;138.48;67.13;;;;;;;15.39;39.35;98297.72;5130133;27;20026;-87
2022/03/27 06:09:52;;;;;;;158.95;81.43;;;;;;;15.80;38.59;98277.81;5118224;27;20023;-87
2022/03/27 06:12:18;;;;;;;123.63;67.28;;;;;;;16.10;38.25;98311.56;5123643;27;20027;-88
2022/03/27 06:14:43;;;;;;;164.07;83.47;;;;;;;16.25;38.50;98305.06;5129786;27;20031;-87
2022/03/27 06:17:09;;;;;;;162.88;77.57;;;;;;;16.63;37.46;98294.16;5128383;27;20048;-87
2022/03/27 06:19:35;;;;;;;169.32;87.10;;;;;;;16.76;37.81;98305.75;5151474;27;20037;-86
2022/03/27 06:22:00;;;;;;;148.38;76.63;;;;;;;15.94;38.85;98316.31;5124477;27;20042;-86
2022/03/27 06:24:26;;;;;;;141.82;70.75;;;;;;;15.40;39.63;98315.66;5123253;27;20031;-86
2022/03/27 06:26:52;;;;;;;152.43;77.90;;;;;;;16.15;38.41;98305.84;5116004;27;20469;-87
2022/03/27 06:29:20;;;;;;;153.38;82.25;;;;;;;17.00;37.14;98300.38;5120461;27;20062;-87
2022/03/27 06:31:46;;;;;;;143.02;75.20;;;;;;;16.75;37.98;98320.28;5121630;27;20104;-88
2022/03/27 06:34:12;;;;;;;124.65;70.50;;;;;;;17.95;35.91;98307.41;5123520;27;20064;-86
2022/03/27 06:36:38;;;;;;;131.07;65.68;;;;;;;18.14;35.47;98308.53;5116776;27;20019;-86
2022/03/27 06:39:05;;;;;;;123.88;63.38;;;;;;;17.62;35.94;98316.34;5124496;27;20110;-87
2022/03/27 06:41:30;;;;;;;130.18;70.97;;;;;;;18.07;35.88;98285.63;5143776;27;20026;-87
2022/03/27 06:43:56;;;;;;;119.60;64.78;;;;;;;19.09;34.42;98301.59;5119471;27;20038;-89
2022/03/27 06:46:22;;;;;;;108.68;60.25;;;;;;;19.82;33.23;98293.44;5145291;27;20447;-87
2022/03/27 06:48:51;;;;;;;91.85;53.65;;;;;;;19.86;33.45;98303.91;5121900;27;20535;-87
2022/03/27 06:51:17;;;;;;;90.72;53.67;;;;;;;20.42;32.20;98300.78;5133643;27;20079;-87
2022/03/27 06:53:43;;;;;;;104.95;55.25;;;;;;;19.83;33.03;98293.31;5138631;27;20023;-84
2022/03/27 06:56:09;;;;;;;71.18;38.40;;;;;;;20.51;32.15;98299.94;5142518;27;20025;-85
2022/03/27 06:58:35;;;;;;;102.35;57.25;;;;;;;20.61;31.77;98283.66;5126267;27;20031;-85
2022/03/27 07:03:45;;;;;;;100.55;58.80;;;;;;;21.21;31.23;98288.06;5154170;27;20041;-93
2022/03/27 07:06:11;;;;;;;105.35;61.33;;;;;;;22.03;29.98;98281.06;5128505;27;20417;-91
2022/03/27 07:08:37;;;;;;;121.95;74.60;;;;;;;22.43;29.57;98287.09;5125544;27;20126;-92
2022/03/27 07:11:03;;;;;;;134.60;89.57;;;;;;;22.38;29.26;98280.38;5121730;27;20129;-92
2022/03/27 07:13:30;;;;;;;119.70;72.65;;;;;;;23.00;28.51;98277.75;5139572;27;20027;-92
2022/03/27 07:15:55;;;;;;;101.47;58.10;;;;;;;23.73;27.78;98271.09;5121144;27;20023;-90
2022/03/27 07:18:22;;;;;;;92.82;57.05;;;;;;;24.99;26.14;98265.78;5131819;27;20050;-92
2022/03/27 07:20:48;;;;;;;95.80;55.00;;;;;;;25.04;26.05;98279.81;5131940;27;20035;-91
2022/03/27 07:23:15;;;;;;;77.10;47.10;;;;;;;25.80;24.92;98265.88;5133167;27;20479;-92
2022/03/27 07:25:44;;;;;;;111.85;54.53;;;;;;;24.74;26.54;98270.28;5134055;27;20104;-91
2022/03/27 07:28:11;;;;;;;81.13;48.13;;;;;;;24.66;26.10;98263.94;5128089;27;20666;-91
2022/03/27 07:30:37;;;;;;;76.68;46.28;;;;;;;24.95;26.13;98269.88;5135603;27;20030;-91
2022/03/27 07:33:04;;;;;;;86.97;49.38;;;;;;;25.08;26.23;98283.94;5120107;27;20023;-90
2022/03/27 07:35:30;;;;;;;80.93;45.28;;;;;;;24.30;26.09;98265.16;5132128;27;20041;-91
2022/03/27 07:37:56;;;;;;;77.65;44.85;;;;;;;24.65;26.08;98251.28;5133539;27;20027;-91
2022/03/27 07:40:22;;;;;;;69.45;38.35;;;;;;;25.97;24.34;98242.88;5137505;27;20018;-90
2022/03/27 07:42:50;;;;;;;68.65;42.22;;;;;;;28.03;22.78;98248.53;5133637;27;20035;-91
2022/03/27 07:45:18;;;;;;;72.68;43.30;;;;;;;27.73;21.90;98241.28;5128737;27;20175;-91
2022/03/27 07:47:44;;;;;;;89.07;59.17;;;;;;;27.67;21.80;98239.28;5140218;27;20027;-90
2022/03/27 07:50:11;;;;;;;102.78;57.95;;;;;;;27.27;22.83;98240.44;5140017;27;20030;-91
2022/03/27 07:52:37;;;;;;;82.75;52.97;;;;;;;28.36;22.14;98232.59;5119976;27;20096;-91
2022/03/27 07:55:05;;;;;;;69.47;43.38;;;;;;;29.26;20.48;98231.19;5122507;27;20029;-92
2022/03/27 07:57:30;;;;;;;73.13;38.72;;;;;;;28.37;20.76;98231.50;5127853;27;20078;-92
2022/03/27 07:59:56;;;;;;;71.18;42.58;;;;;;;29.14;20.63;98221.72;5127095;27;20034;-92
2022/03/27 08:02:22;;;;;;;56.97;36.85;;;;;;;29.81;19.77;98224.94;5127723;27;20118;-85
2022/03/27 08:04:48;;;;;;;56.83;32.83;;;;;;;29.81;18.94;98213.06;5129820;27;20436;-84
2022/03/27 08:07:14;;;;;;;64.60;42.58;;;;;;;29.64;19.33;98206.13;5130580;27;20516;-84
2022/03/27 08:09:41;;;;;;;59.08;35.97;;;;;;;30.07;18.85;98213.28;5142276;27;20031;-84
2022/03/27 08:12:11;;;;;;;66.45;34.47;;;;;;;31.21;18.13;98201.53;5133953;27;20095;-89
2022/03/27 08:14:36;;;;;;;28.77;18.02;;;;;;;31.08;16.73;98191.31;5139912;27;20029;-91
2022/03/27 08:17:03;;;;;;;24.23;14.23;;;;;;;31.33;15.86;98191.56;5131160;27;20023;-91
2022/03/27 08:19:29;;;;;;;27.48;13.38;;;;;;;31.71;15.57;98175.25;5128425;27;20504;-90
2022/03/27 08:21:55;;;;;;;22.17;12.95;;;;;;;31.66;15.46;98183.31;5129104;27;20024;-90
2022/03/27 08:24:22;;;;;;;25.83;14.38;;;;;;;30.08;16.24;98191.00;5127684;27;20049;-89
2022/03/27 08:26:56;;;;;;;28.10;13.65;;;;;;;30.63;16.07;98203.88;5128854;27;20035;-91
2022/03/27 08:29:30;;;;;;;23.20;14.38;;;;;;;29.78;16.04;98172.09;5140072;27;20019;-89
2022/03/27 08:31:59;;;;;;;30.70;12.98;;;;;;;30.46;15.83;98191.44;5132396;27;20018;-91
2022/03/27 08:34:24;;;;;;;22.30;10.77;;;;;;;29.87;15.55;98182.78;5132273;27;20023;-90
2022/03/27 08:36:50;;;;;;;27.00;11.00;;;;;;;30.51;15.53;98194.47;5119442;27;20106;-91
2022/03/27 08:39:16;;;;;;;23.77;11.70;;;;;;;31.01;15.08;98167.47;5128800;27;20039;-90
2022/03/27 08:41:43;;;;;;;20.95;11.38;;;;;;;29.91;15.58;98177.69;5128748;27;20045;-90
2022/03/27 08:44:13;;;;;;;20.45;10.45;;;;;;;30.16;14.98;98167.03;5138926;27;20038;-90
2022/03/27 08:46:41;;;;;;;17.08;9.95;;;;;;;30.81;14.81;98152.69;5145616;27;20451;-90
2022/03/27 08:49:34;;;;;;;19.30;11.43;;;;;;;31.78;14.12;98175.25;5126797;27;20046;-91
2022/03/27 08:52:08;;;;;;;19.02;10.95;;;;;;;32.16;14.03;98165.19;5151797;27;20026;-91
2022/03/27 08:54:52;;;;;;;19.70;11.02;;;;;;;31.87;14.27;98163.69;5152550;27;20074;-90
2022/03/27 08:57:29;;;;;;;21.25;10.98;;;;;;;31.84;14.42;98166.06;5126473;27;20470;-90
2022/03/27 08:59:56;;;;;;;32.38;12.23;;;;;;;32.28;13.72;98154.28;5121963;27;20034;-90
2022/03/27 09:02:24;;;;;;;18.50;10.82;;;;;;;31.03;14.50;98154.28;5137328;27;20409;-89
2022/03/27 09:04:55;;;;;;;25.17;12.13;;;;;;;30.22;15.19;98144.13;5128452;27;20027;-91
2022/03/27 09:07:30;;;;;;;27.77;12.80;;;;;;;31.06;14.90;98148.34;5123431;27;20121;-91
2022/03/27 09:09:58;;;;;;;20.38;12.23;;;;;;;32.68;13.81;98162.28;5129289;27;20037;-90
2022/03/27 09:12:24;;;;;;;24.30;11.88;;;;;;;32.67;14.17;98146.69;5134508;27;20121;-90
2022/03/27 09:14:50;;;;;;;18.38;10.20;;;;;;;33.02;13.85;98144.38;5130650;27;20055;-90
2022/03/27 09:17:16;;;;;;;22.38;10.85;;;;;;;33.12;13.43;98160.56;5132069;27;20030;-90
2022/03/27 09:19:46;;;;;;;18.08;10.50;;;;;;;33.36;13.21;98148.66;5120004;27;20023;-90
2022/03/27 09:22:13;;;;;;;20.63;10.80;;;;;;;33.36;13.32;98136.72;5117636;27;20482;-91
2022/03/27 09:24:38;;;;;;;23.42;12.93;;;;;;;33.79;14.38;98138.50;5135847;27;20034;-89
2022/03/27 09:27:05;;;;;;;19.95;11.60;;;;;;;34.00;13.43;98134.47;5134848;27;20413;-89
2022/03/27 09:30:00;;;;;;;15.45;10.60;;;;;;;34.15;13.13;98143.28;5124078;27;20117;-90
2022/03/27 09:32:31;;;;;;;16.25;10.45;;;;;;;33.97;13.35;98122.94;5141863;27;20050;-89
2022/03/27 09:35:11;;;;;;;21.02;10.90;;;;;;;34.21;12.88;98130.41;5134572;27;20024;-89
2022/03/27 09:37:38;;;;;;;22.02;10.20;;;;;;;32.37;13.98;98114.19;5135195;27;20022;-89
2022/03/27 09:40:06;;;;;;;22.13;9.98;;;;;;;33.04;13.50;98120.03;5129630;27;20102;-89
2022/03/27 09:42:37;;;;;;;19.05;9.82;;;;;;;33.50;13.12;98122.50;5128688;27;20027;-89
2022/03/27 09:45:32;;;;;;;17.13;9.93;;;;;;;33.30;13.04;98109.88;5119622;27;20023;-90
2022/03/27 09:48:07;;;;;;;15.73;9.57;;;;;;;33.07;13.12;98110.47;5119202;27;20031;-90
2022/03/27 09:50:39;;;;;;;26.70;11.30;;;;;;;32.37;13.67;98098.44;5136720;27;20026;-90
2022/03/27 09:53:31;;;;;;;;;;;;;;;31.87;14.04;98118.59;5135006;27;20034;-90
2022/03/27 09:55:56;;;;;;;15.13;9.57;;;;;;;32.69;13.41;98110.47;5150188;27;19950;-91
2022/03/27 09:58:45;;;;;;;19.15;10.43;;;;;;;33.64;12.81;98101.94;5147630;27;20066;-91
2022/03/27 10:01:17;;;;;;;24.30;10.27;;;;;;;33.17;13.32;98099.72;5129865;27;20026;-91
2022/03/27 10:04:00;;;;;;;17.08;8.88;;;;;;;31.33;13.67;98082.84;5129936;27;20031;-90
2022/03/27 10:06:33;;;;;;;18.88;10.35;;;;;;;31.88;14.15;98104.50;5125572;27;20034;-90
2022/03/27 10:09:00;;;;;;;18.10;10.18;;;;;;;33.39;13.39;98094.66;5134462;27;20107;-90
2022/03/27 10:11:26;;;;;;;17.90;10.10;;;;;;;33.04;13.78;98084.00;5124257;27;20023;-91
2022/03/27 10:13:54;;;;;;;27.15;12.75;;;;;;;33.62;13.56;98083.81;5145063;27;20027;-92
2022/03/27 10:16:26;;;;;;;17.20;9.93;;;;;;;32.60;13.64;98084.94;5126347;27;20027;-91
2022/03/27 10:18:58;;;;;;;16.67;9.40;;;;;;;32.75;13.42;98084.63;5127482;27;20050;-91
2022/03/27 10:21:25;;;;;;;21.10;10.50;;;;;;;33.82;13.45;98086.38;5130084;27;20057;-91
2022/03/27 10:23:56;;;;;;;20.90;9.88;;;;;;;33.67;13.75;98089.50;5125122;27;20050;-92
2022/03/27 10:26:21;;;;;;;22.17;9.48;;;;;;;34.02;13.00;98087.88;5120818;27;20106;-91
2022/03/27 10:28:49;;;;;;;15.20;9.05;;;;;;;34.11;12.41;98050.41;5124374;27;20062;-91
2022/03/27 10:31:17;;;;;;;20.90;9.40;;;;;;;33.95;12.48;98072.34;5118816;27;20115;-90
2022/03/27 10:33:43;;;;;;;17.25;9.60;;;;;;;34.90;12.45;98077.16;5130884;27;20006;-90
2022/03/27 10:36:40;;;;;;;14.98;8.65;;;;;;;34.79;12.17;98077.97;5134814;27;20019;-91
2022/03/27 10:39:24;;;;;;;15.90;9.75;;;;;;;33.34;12.88;98067.59;5145731;27;20381;-90
2022/03/27 10:42:17;;;;;;;18.70;9.00;;;;;;;32.47;13.54;98071.09;5119449;27;20551;-90
2022/03/27 10:44:53;;;;;;;16.65;9.00;;;;;;;32.23;13.42;98071.88;5132843;27;20023;-89
2022/03/27 10:47:21;;;;;;;15.25;8.25;;;;;;;33.22;13.31;98061.09;5122527;27;20045;-89
2022/03/27 10:50:01;;;;;;;23.98;9.93;;;;;;;32.80;13.06;98070.94;5124729;27;20030;-88
2022/03/27 10:52:37;;;;;;;24.55;10.38;;;;;;;31.21;13.53;98068.81;5131620;27;20027;-78
2022/03/27 10:55:09;;;;;;;24.88;9.45;;;;;;;31.42;13.15;98071.34;5148143;27;20071;-81
2022/03/27 10:57:45;;;;;;;15.88;8.52;;;;;;;31.60;13.38;98057.72;5133988;27;20067;-80
2022/03/27 11:00:14;;;;;;;20.70;8.95;;;;;;;31.12;14.03;98070.09;5131550;27;20078;-86
2022/03/27 11:02:50;;;;;;;14.05;8.52;;;;;;;30.40;13.72;98070.75;5137295;27;20087;-84
2022/03/27 11:05:36;;;;;;;14.80;8.32;;;;;;;32.38;13.00;98064.13;5122572;27;20130;-80
2022/03/27 11:08:17;;;;;;;14.20;7.15;;;;;;;31.18;13.46;98058.19;5141166;27;20027;-80
2022/03/27 11:10:55;;;;;;;12.60;7.15;;;;;;;32.33;13.33;98055.63;5138865;27;20027;-80
2022/03/27 11:13:27;;;;;;;17.15;6.82;;;;;;;33.08;12.82;98060.31;5110791;27;20568;-79
2022/03/27 11:16:09;;;;;;;18.08;6.95;;;;;;;33.11;12.83;98056.25;5135354;27;20038;-80
2022/03/27 11:18:41;;;;;;;17.02;8.15;;;;;;;33.34;13.15;98045.41;5117736;28;20485;-78
2022/03/27 11:21:08;;;;;;;10.48;7.25;;;;;;;32.54;13.03;98044.22;5117494;27;20062;-79
2022/03/27 11:23:39;;;;;;;13.25;7.18;;;;;;;32.89;13.37;98041.00;5137265;27;20069;-80
2022/03/27 11:26:29;;;;;;;16.33;6.78;;;;;;;33.17;12.87;98034.00;5132600;27;20025;-80
2022/03/27 11:28:59;;;;;;;15.00;7.85;;;;;;;33.60;12.24;98025.72;5140095;27;20043;-81
2022/03/27 11:31:42;;;;;;;19.05;7.70;;;;;;;34.69;12.73;98028.47;5145007;27;20026;-90